createdAt,value
2022-08-12T00:00:40.076Z,518.00
2022-08-12T00:02:04.437Z,516.00
2022-08-12T00:02:41.355Z,517.00
2022-08-12T00:03:40.260Z,519.00
2022-08-12T00:04:40.017Z,518.00
2022-08-12T00:06:04.095Z,517.00
2022-08-12T00:06:40.988Z,514.00
2022-08-12T00:08:01.036Z,514.00
2022-08-12T00:08:39.958Z,516.00
2022-08-12T00:09:40.087Z,517.00
2022-08-12T00:10:39.937Z,519.00
2022-08-12T00:11:40.077Z,521.00
2022-08-12T00:12:40.115Z,524.00
2022-08-12T00:13:41.092Z,526.00
2022-08-12T00:14:39.880Z,525.00
2022-08-12T00:15:39.898Z,527.00
2022-08-12T00:16:39.857Z,526.00
2022-08-12T00:17:39.978Z,526.00
2022-08-12T00:18:39.826Z,523.00
2022-08-12T00:20:02.904Z,522.00
2022-08-12T00:20:39.801Z,520.00
2022-08-12T00:21:39.899Z,520.00
2022-08-12T00:22:40.033Z,518.00
2022-08-12T00:23:39.897Z,516.00
2022-08-12T00:24:39.739Z,515.00
2022-08-12T00:25:55.776Z,515.00
2022-08-12T00:26:40.859Z,514.00
2022-08-12T00:27:43.657Z,514.00
2022-08-12T00:28:39.710Z,514.00
2022-08-12T00:29:41.109Z,513.00
2022-08-12T00:30:39.659Z,513.00
2022-08-12T00:32:01.415Z,512.00
2022-08-12T00:32:39.631Z,514.00
2022-08-12T00:33:52.240Z,514.00
2022-08-12T00:34:40.640Z,513.00
2022-08-12T00:35:39.643Z,514.00
2022-08-12T00:36:39.579Z,516.00
2022-08-12T00:37:39.681Z,518.00
2022-08-12T00:38:39.557Z,520.00
2022-08-12T00:39:39.737Z,521.00
2022-08-12T00:40:39.529Z,522.00
2022-08-12T00:41:39.651Z,522.00
2022-08-12T00:42:39.682Z,521.00
2022-08-12T00:43:39.605Z,519.00
2022-08-12T00:44:39.482Z,519.00
2022-08-12T00:45:39.581Z,521.00
2022-08-12T00:46:39.450Z,524.00
2022-08-12T00:47:39.564Z,525.00
2022-08-12T00:48:39.412Z,526.00
2022-08-12T00:49:40.523Z,527.00
2022-08-12T00:50:39.420Z,529.00
2022-08-12T00:51:39.536Z,529.00
2022-08-12T00:52:39.573Z,527.00
2022-08-12T00:53:39.460Z,527.00
2022-08-12T00:54:39.342Z,526.00
2022-08-12T00:55:39.393Z,527.00
2022-08-12T00:56:39.333Z,527.00
2022-08-12T00:57:40.461Z,525.00
2022-08-12T00:58:39.281Z,525.00
2022-08-12T00:59:39.472Z,528.00
2022-08-12T01:00:39.263Z,525.00
2022-08-12T01:02:02.459Z,768.00
2022-08-12T01:02:40.500Z,424.00
2022-08-12T01:03:39.223Z,519.00
2022-08-12T01:04:39.414Z,522.00
2022-08-12T01:05:39.192Z,523.00
2022-08-12T01:06:39.241Z,526.00
2022-08-12T01:07:39.201Z,526.00
2022-08-12T01:08:39.275Z,528.00
2022-08-12T01:09:39.138Z,527.00
2022-08-12T01:11:48.494Z,563.00
2022-08-12T01:12:48.404Z,521.00
2022-08-12T01:13:48.425Z,521.00
2022-08-12T01:14:48.354Z,521.00
2022-08-12T01:16:57.749Z,579.00
2022-08-12T01:17:57.777Z,523.00
2022-08-12T01:18:57.679Z,519.00
2022-08-12T01:19:57.608Z,519.00
2022-08-12T01:21:18.686Z,518.00
2022-08-12T01:21:57.587Z,516.00
2022-08-12T01:22:57.747Z,512.00
2022-08-12T01:23:57.578Z,508.00
2022-08-12T01:24:57.678Z,509.00
2022-08-12T01:25:57.528Z,509.00
2022-08-12T01:26:57.599Z,509.00
2022-08-12T01:27:57.542Z,511.00
2022-08-12T01:28:58.476Z,512.00
2022-08-12T01:29:57.503Z,513.00
2022-08-12T01:30:57.586Z,513.00
2022-08-12T01:31:57.449Z,513.00
2022-08-12T01:32:57.546Z,513.00
2022-08-12T01:33:57.425Z,514.00
2022-08-12T01:34:57.623Z,513.00
2022-08-12T01:35:57.878Z,511.00
2022-08-12T01:36:58.389Z,512.00
2022-08-12T01:38:19.459Z,515.00
2022-08-12T01:38:58.358Z,516.00
2022-08-12T01:40:34.534Z,515.00
2022-08-12T01:40:58.581Z,512.00
2022-08-12T01:41:57.319Z,513.00
2022-08-12T01:42:57.499Z,513.00
2022-08-12T01:43:57.290Z,512.00
2022-08-12T01:44:57.337Z,510.00
2022-08-12T01:45:57.752Z,509.00
2022-08-12T01:46:57.333Z,511.00
2022-08-12T01:47:57.240Z,511.00
2022-08-12T01:49:18.280Z,512.00
2022-08-12T01:49:57.211Z,514.00
2022-08-12T01:51:00.311Z,516.00
2022-08-12T01:52:15.107Z,517.00
2022-08-12T01:52:58.193Z,518.00
2022-08-12T01:53:59.342Z,515.00
2022-08-12T01:54:57.141Z,514.00
2022-08-12T01:55:57.279Z,514.00
2022-08-12T01:56:57.124Z,514.00
2022-08-12T01:58:01.106Z,512.00
2022-08-12T01:58:57.120Z,514.00
2022-08-12T01:59:57.151Z,515.00
2022-08-12T02:00:57.121Z,519.00
2022-08-12T02:01:57.348Z,518.00
2022-08-12T02:02:57.040Z,519.00
2022-08-12T02:03:57.111Z,518.00
2022-08-12T02:04:57.033Z,517.00
2022-08-12T02:05:59.252Z,518.00
2022-08-12T02:06:56.983Z,518.00
2022-08-12T02:07:57.094Z,521.00
2022-08-12T02:08:56.951Z,521.00
2022-08-12T02:09:57.022Z,521.00
2022-08-12T02:10:56.951Z,522.00
2022-08-12T02:11:58.674Z,522.00
2022-08-12T02:12:56.898Z,521.00
2022-08-12T02:13:57.002Z,522.00
2022-08-12T02:14:56.882Z,522.00
2022-08-12T02:15:57.043Z,520.00
2022-08-12T02:16:56.893Z,522.00
2022-08-12T02:18:18.055Z,521.00
2022-08-12T02:18:56.820Z,521.00
2022-08-12T02:19:56.901Z,520.00
2022-08-12T02:20:56.791Z,520.00
2022-08-12T02:21:56.937Z,518.00
2022-08-12T02:22:56.801Z,517.00
2022-08-12T02:23:57.903Z,516.00
2022-08-12T02:24:56.750Z,516.00
2022-08-12T02:25:56.920Z,517.00
2022-08-12T02:26:56.722Z,524.00
2022-08-12T02:27:56.842Z,526.00
2022-08-12T02:28:56.713Z,528.00
2022-08-12T02:30:17.752Z,530.00
2022-08-12T02:30:56.663Z,530.00
2022-08-12T02:31:56.813Z,530.00
2022-08-12T02:32:56.643Z,530.00
2022-08-12T02:33:56.803Z,526.00
2022-08-12T02:34:56.611Z,526.00
2022-08-12T02:35:56.683Z,528.00
2022-08-12T02:36:57.485Z,526.00
2022-08-12T02:37:57.573Z,528.00
2022-08-12T02:38:56.684Z,530.00
2022-08-12T02:39:56.638Z,529.00
2022-08-12T02:41:17.707Z,531.00
2022-08-12T02:41:56.522Z,533.00
2022-08-12T02:42:57.583Z,533.00
2022-08-12T02:43:56.504Z,533.00
2022-08-12T02:44:56.592Z,531.00
2022-08-12T02:45:56.493Z,533.00
2022-08-12T02:46:57.653Z,534.00
2022-08-12T02:48:00.934Z,534.00
2022-08-12T02:48:56.434Z,533.00
2022-08-12T02:49:56.523Z,533.00
2022-08-12T02:50:56.408Z,531.00
2022-08-12T02:51:57.542Z,532.00
2022-08-12T02:52:56.374Z,530.00
2022-08-12T02:54:05.157Z,531.00
2022-08-12T02:54:57.353Z,534.00
2022-08-12T02:55:56.433Z,533.00
2022-08-12T02:56:56.327Z,532.00
2022-08-12T02:57:56.533Z,533.00
2022-08-12T02:58:56.294Z,532.00
2022-08-12T02:59:56.414Z,532.00
2022-08-12T03:00:56.346Z,532.00
2022-08-12T03:01:56.453Z,529.00
2022-08-12T03:02:56.255Z,529.00
2022-08-12T03:03:56.324Z,529.00
2022-08-12T03:04:56.223Z,526.00
2022-08-12T03:05:56.317Z,525.00
2022-08-12T03:06:56.193Z,528.00
2022-08-12T03:08:00.066Z,525.00
2022-08-12T03:08:56.166Z,525.00
2022-08-12T03:10:04.649Z,528.00
2022-08-12T03:10:57.143Z,528.00
2022-08-12T03:11:56.328Z,526.00
2022-08-12T03:12:56.117Z,529.00
2022-08-12T03:13:56.155Z,527.00
2022-08-12T03:14:56.101Z,530.00
2022-08-12T03:16:03.933Z,530.00
2022-08-12T03:16:56.063Z,531.00
2022-08-12T03:18:24.910Z,527.00
2022-08-12T03:18:57.115Z,527.00
2022-08-12T03:20:10.537Z,526.00
2022-08-12T03:20:57.035Z,527.00
2022-08-12T03:22:09.293Z,525.00
2022-08-12T03:22:56.992Z,527.00
2022-08-12T03:23:56.025Z,528.00
2022-08-12T03:24:55.954Z,530.00
2022-08-12T03:25:56.066Z,529.00
2022-08-12T03:27:00.506Z,530.00
2022-08-12T03:27:55.937Z,531.00
2022-08-12T03:28:55.967Z,532.00
2022-08-12T03:29:55.906Z,531.00
2022-08-12T03:30:56.841Z,532.00
2022-08-12T03:31:55.865Z,536.00
2022-08-12T03:32:55.997Z,534.00
2022-08-12T03:34:01.626Z,534.00
2022-08-12T03:34:56.836Z,535.00
2022-08-12T03:35:55.951Z,534.00
2022-08-12T03:36:55.797Z,532.00
2022-08-12T03:37:55.986Z,531.00
2022-08-12T03:38:55.797Z,532.00
2022-08-12T03:39:55.847Z,531.00
2022-08-12T03:40:55.755Z,532.00
2022-08-12T03:41:58.136Z,532.00
2022-08-12T03:42:55.733Z,529.00
2022-08-12T03:44:16.816Z,529.00
2022-08-12T03:44:55.705Z,527.00
2022-08-12T03:45:55.831Z,529.00
2022-08-12T03:46:55.677Z,529.00
2022-08-12T03:47:55.864Z,529.00
2022-08-12T03:48:55.646Z,528.00
2022-08-12T03:49:55.738Z,527.00
2022-08-12T03:50:55.620Z,530.00
2022-08-12T03:51:55.725Z,528.00
2022-08-12T03:52:55.592Z,528.00
2022-08-12T03:53:55.666Z,527.00
2022-08-12T03:54:55.567Z,530.00
2022-08-12T03:55:58.926Z,529.00
2022-08-12T03:56:55.536Z,530.00
2022-08-12T03:57:55.736Z,531.00
2022-08-12T03:58:55.515Z,531.00
2022-08-12T03:59:55.566Z,529.00
2022-08-12T04:00:55.526Z,526.00
2022-08-12T04:01:56.578Z,527.00
2022-08-12T04:02:55.488Z,526.00
2022-08-12T04:03:55.540Z,526.00
2022-08-12T04:04:55.427Z,526.00
2022-08-12T04:05:56.759Z,528.00
2022-08-12T04:06:55.407Z,529.00
2022-08-12T04:07:58.340Z,529.00
2022-08-12T04:08:55.386Z,528.00
2022-08-12T04:09:55.448Z,527.00
2022-08-12T04:10:55.357Z,527.00
2022-08-12T04:11:55.477Z,529.00
2022-08-12T04:12:55.331Z,530.00
2022-08-12T04:13:55.467Z,533.00
2022-08-12T04:14:55.298Z,533.00
2022-08-12T04:15:55.459Z,534.00
2022-08-12T04:16:55.279Z,535.00
2022-08-12T04:18:06.813Z,536.00
2022-08-12T04:18:56.269Z,534.00
2022-08-12T04:19:55.318Z,534.00
2022-08-12T04:20:55.220Z,533.00
2022-08-12T04:22:02.711Z,534.00
2022-08-12T04:22:56.199Z,533.00
2022-08-12T04:23:55.288Z,529.00
2022-08-12T04:24:55.189Z,530.00
2022-08-12T04:25:56.347Z,529.00
2022-08-12T04:26:55.139Z,526.00
2022-08-12T04:27:55.261Z,527.00
2022-08-12T04:28:55.108Z,525.00
2022-08-12T04:30:30.427Z,524.00
2022-08-12T04:30:56.138Z,523.00
2022-08-12T04:31:55.077Z,524.00
2022-08-12T04:32:55.199Z,525.00
2022-08-12T04:33:55.050Z,528.00
2022-08-12T04:34:55.128Z,529.00
2022-08-12T04:35:55.026Z,529.00
2022-08-12T04:36:55.116Z,528.00
2022-08-12T04:37:59.845Z,527.00
2022-08-12T04:38:59.528Z,527.00
2022-08-12T04:39:55.068Z,527.00
2022-08-12T04:40:55.037Z,527.00
2022-08-12T04:41:58.241Z,524.00
2022-08-12T04:42:54.949Z,526.00
2022-08-12T04:44:02.079Z,528.00
2022-08-12T04:44:55.898Z,531.00
2022-08-12T04:45:54.979Z,528.00
2022-08-12T04:46:54.870Z,527.00
2022-08-12T04:47:55.009Z,529.00
2022-08-12T04:48:54.868Z,528.00
2022-08-12T04:49:54.948Z,527.00
2022-08-12T04:50:54.810Z,528.00
2022-08-12T04:51:59.453Z,530.00
2022-08-12T04:52:54.812Z,530.00
2022-08-12T04:53:54.918Z,529.00
2022-08-12T04:54:54.782Z,527.00
2022-08-12T04:55:54.849Z,526.00
2022-08-12T04:57:03.244Z,527.00
2022-08-12T04:57:55.729Z,528.00
2022-08-12T04:58:56.847Z,527.00
2022-08-12T04:59:54.719Z,524.00
2022-08-12T05:00:56.817Z,524.00
2022-08-12T05:01:54.707Z,524.00
2022-08-12T05:02:55.813Z,525.00
2022-08-12T05:03:54.657Z,523.00
2022-08-12T05:04:54.811Z,522.00
2022-08-12T05:05:54.621Z,522.00
2022-08-12T05:06:56.800Z,522.00
2022-08-12T05:07:55.304Z,525.00
2022-08-12T05:08:54.629Z,524.00
2022-08-12T05:10:00.228Z,527.00
2022-08-12T05:10:55.570Z,524.00
2022-08-12T05:11:54.740Z,524.00
2022-08-12T05:12:54.551Z,526.00
2022-08-12T05:13:54.541Z,526.00
2022-08-12T05:14:54.500Z,526.00
2022-08-12T05:16:04.480Z,527.00
2022-08-12T05:16:55.496Z,528.00
2022-08-12T05:18:19.407Z,530.00
2022-08-12T05:18:54.450Z,530.00
2022-08-12T05:19:54.585Z,528.00
2022-08-12T05:20:54.423Z,526.00
2022-08-12T05:21:54.511Z,528.00
2022-08-12T05:22:57.556Z,527.00
2022-08-12T05:23:54.380Z,525.00
2022-08-12T05:24:54.537Z,524.00
2022-08-12T05:25:54.352Z,523.00
2022-08-12T05:26:54.441Z,523.00
2022-08-12T05:27:58.345Z,524.00
2022-08-12T05:28:55.332Z,525.00
2022-08-12T05:30:06.721Z,523.00
2022-08-12T05:30:55.285Z,522.00
2022-08-12T05:31:55.411Z,524.00
2022-08-12T05:32:54.264Z,525.00
2022-08-12T05:33:54.391Z,525.00
2022-08-12T05:34:54.241Z,524.00
2022-08-12T05:35:54.353Z,525.00
2022-08-12T05:36:54.213Z,521.00
2022-08-12T05:37:54.401Z,521.00
2022-08-12T05:38:54.183Z,517.00
2022-08-12T05:39:55.520Z,513.00
2022-08-12T05:40:54.164Z,506.00
2022-08-12T05:41:55.293Z,504.00
2022-08-12T05:42:54.132Z,503.00
2022-08-12T05:43:54.202Z,501.00
2022-08-12T05:44:54.112Z,500.00
2022-08-12T05:45:57.463Z,499.00
2022-08-12T05:46:54.081Z,496.00
2022-08-12T05:47:54.584Z,493.00
2022-08-12T05:48:54.055Z,494.00
2022-08-12T05:49:54.102Z,496.00
2022-08-12T05:50:54.035Z,496.00
2022-08-12T05:51:54.094Z,496.00
2022-08-12T05:52:54.116Z,498.00
2022-08-12T05:53:54.079Z,495.00
2022-08-12T05:54:57.742Z,492.00
2022-08-12T05:55:53.961Z,490.00
2022-08-12T05:56:55.101Z,493.00
2022-08-12T05:57:53.961Z,489.00
2022-08-12T05:58:54.020Z,490.00
2022-08-12T05:59:53.913Z,489.00
2022-08-12T06:00:54.055Z,492.00
2022-08-12T06:02:11.828Z,491.00
2022-08-12T06:02:54.907Z,493.00
2022-08-12T06:03:53.956Z,493.00
2022-08-12T06:04:53.845Z,494.00
2022-08-12T06:05:55.378Z,496.00
2022-08-12T06:06:53.856Z,494.00
2022-08-12T06:08:01.170Z,493.00
2022-08-12T06:08:54.804Z,490.00
2022-08-12T06:09:53.853Z,491.00
2022-08-12T06:10:53.756Z,493.00
2022-08-12T06:12:04.253Z,493.00
2022-08-12T06:12:54.724Z,493.00
2022-08-12T06:13:54.784Z,494.00
2022-08-12T06:14:53.732Z,494.00
2022-08-12T06:15:55.864Z,494.00
2022-08-12T06:16:53.684Z,492.00
2022-08-12T06:17:53.694Z,490.00
2022-08-12T06:18:53.654Z,490.00
2022-08-12T06:20:29.643Z,488.00
2022-08-12T06:20:56.849Z,485.00
2022-08-12T06:21:53.615Z,484.00
2022-08-12T06:22:54.486Z,486.00
2022-08-12T06:23:53.586Z,489.00
2022-08-12T06:24:54.700Z,488.00
2022-08-12T06:25:53.556Z,487.00
2022-08-12T06:26:53.670Z,489.00
2022-08-12T06:28:07.194Z,487.00
2022-08-12T06:28:54.522Z,487.00
2022-08-12T06:30:09.343Z,485.00
2022-08-12T06:31:22.611Z,485.00
2022-08-12T06:31:56.665Z,486.00
2022-08-12T06:33:04.141Z,489.00
2022-08-12T06:33:55.190Z,489.00
2022-08-12T06:35:26.489Z,489.00
2022-08-12T06:35:58.678Z,488.00
2022-08-12T06:36:53.417Z,489.00
2022-08-12T06:37:56.411Z,490.00
2022-08-12T06:38:53.387Z,489.00
2022-08-12T06:39:53.539Z,487.00
2022-08-12T06:40:53.356Z,486.00
2022-08-12T06:42:10.814Z,485.00
2022-08-12T06:42:54.427Z,483.00
2022-08-12T06:44:05.170Z,485.00
2022-08-12T06:44:54.298Z,483.00
2022-08-12T06:45:53.398Z,483.00
2022-08-12T06:46:53.278Z,483.00
2022-08-12T06:47:54.268Z,482.00
2022-08-12T06:48:53.457Z,481.00
2022-08-12T06:49:53.237Z,481.00
2022-08-12T06:50:53.337Z,481.00
2022-08-12T06:51:53.641Z,478.00
2022-08-12T06:52:53.212Z,481.00
2022-08-12T06:53:54.266Z,486.00
2022-08-12T06:54:53.187Z,484.00
2022-08-12T06:55:58.051Z,483.00
2022-08-12T06:58:01.926Z,480.00
2022-08-12T06:58:05.576Z,480.00
2022-08-12T06:58:54.169Z,475.00
2022-08-12T06:59:53.251Z,480.00
2022-08-12T07:00:53.156Z,477.00
2022-08-12T07:01:53.289Z,478.00
2022-08-12T07:02:53.068Z,476.00
2022-08-12T07:03:53.131Z,476.00
2022-08-12T07:04:53.046Z,475.00
2022-08-12T07:05:53.249Z,475.00
2022-08-12T07:06:53.070Z,478.00
2022-08-12T07:07:53.080Z,478.00
2022-08-12T07:08:52.991Z,480.00
2022-08-12T07:10:00.189Z,479.00
2022-08-12T07:10:53.967Z,477.00
2022-08-12T07:11:53.160Z,479.00
2022-08-12T07:12:52.960Z,482.00
2022-08-12T07:14:12.457Z,481.00
2022-08-12T07:14:54.083Z,481.00
2022-08-12T07:15:52.941Z,479.00
2022-08-12T07:16:52.994Z,478.00
2022-08-12T07:17:52.871Z,478.00
2022-08-12T07:18:54.938Z,482.00
2022-08-12T07:19:52.841Z,489.00
2022-08-12T07:20:53.494Z,481.00
2022-08-12T07:21:59.697Z,479.00
2022-08-12T07:22:53.801Z,481.00
2022-08-12T07:23:54.963Z,480.00
2022-08-12T07:24:52.811Z,479.00
2022-08-12T07:25:58.331Z,482.00
2022-08-12T07:26:52.761Z,481.00
2022-08-12T07:27:52.832Z,483.00
2022-08-12T07:28:52.731Z,484.00
2022-08-12T07:30:04.227Z,483.00
2022-08-12T07:30:53.722Z,477.00
2022-08-12T07:31:52.812Z,479.00
2022-08-12T07:32:52.674Z,477.00
2022-08-12T07:33:52.743Z,479.00
2022-08-12T07:34:52.644Z,481.00
2022-08-12T07:35:52.846Z,483.00
2022-08-12T07:36:52.714Z,482.00
2022-08-12T07:37:54.816Z,481.00
2022-08-12T07:38:52.596Z,478.00
2022-08-12T07:40:00.498Z,476.00
2022-08-12T07:40:53.593Z,477.00
2022-08-12T07:41:53.614Z,478.00
2022-08-12T07:42:52.535Z,482.00
2022-08-12T07:43:52.625Z,482.00
2022-08-12T07:44:52.512Z,484.00
2022-08-12T07:45:52.654Z,481.00
2022-08-12T07:46:52.513Z,484.00
2022-08-12T07:49:02.087Z,547.00
2022-08-12T07:50:04.775Z,475.00
2022-08-12T07:51:01.755Z,480.00
2022-08-12T07:52:05.086Z,475.00
2022-08-12T07:53:01.717Z,473.00
2022-08-12T07:54:02.805Z,475.00
2022-08-12T07:55:01.702Z,475.00
2022-08-12T07:56:01.839Z,476.00
2022-08-12T07:57:01.669Z,476.00
2022-08-12T07:58:02.858Z,478.00
2022-08-12T07:59:01.644Z,478.00
2022-08-12T08:00:01.707Z,480.00
2022-08-12T08:01:01.627Z,475.00
2022-08-12T08:02:01.862Z,473.00
2022-08-12T08:03:01.592Z,478.00
2022-08-12T08:04:03.733Z,475.00
2022-08-12T08:05:01.564Z,475.00
2022-08-12T08:06:01.761Z,476.00
2022-08-12T08:07:01.553Z,475.00
2022-08-12T08:08:01.691Z,480.00
2022-08-12T08:09:01.541Z,478.00
2022-08-12T08:10:01.649Z,475.00
2022-08-12T08:11:04.284Z,473.00
2022-08-12T08:12:01.629Z,475.00
2022-08-12T08:13:01.450Z,473.00
2022-08-12T08:14:01.676Z,468.00
2022-08-12T08:15:01.438Z,469.00
2022-08-12T08:16:04.831Z,473.00
2022-08-12T08:17:01.398Z,473.00
2022-08-12T08:18:01.429Z,472.00
2022-08-12T08:19:01.378Z,474.00
2022-08-12T08:20:02.467Z,477.00
2022-08-12T08:21:01.377Z,474.00
2022-08-12T08:22:01.499Z,471.00
2022-08-12T08:23:01.330Z,475.00
2022-08-12T08:24:05.051Z,474.00
2022-08-12T08:25:01.307Z,473.00
2022-08-12T08:26:01.461Z,473.00
2022-08-12T08:27:01.283Z,474.00
2022-08-12T08:28:01.299Z,475.00
2022-08-12T08:29:01.248Z,476.00
2022-08-12T08:30:01.346Z,479.00
2022-08-12T08:31:01.212Z,486.00
2022-08-12T08:32:01.336Z,487.00
2022-08-12T08:33:01.220Z,480.00
2022-08-12T08:34:33.781Z,474.00
2022-08-12T08:35:02.303Z,474.00
2022-08-12T08:36:02.085Z,474.00
2022-08-12T08:37:04.748Z,475.00
2022-08-12T08:38:02.152Z,477.00
2022-08-12T08:39:01.259Z,479.00
2022-08-12T08:40:01.099Z,471.00
2022-08-12T08:41:01.190Z,474.00
2022-08-12T08:42:14.107Z,473.00
2022-08-12T08:43:02.054Z,467.00
2022-08-12T08:44:01.299Z,463.00
2022-08-12T08:45:01.032Z,466.00
2022-08-12T08:46:23.225Z,469.00
2022-08-12T08:47:01.004Z,470.00
2022-08-12T08:48:03.492Z,470.00
2022-08-12T08:49:00.992Z,475.00
2022-08-12T08:50:01.383Z,473.00
2022-08-12T08:51:04.438Z,470.00
2022-08-12T08:52:00.944Z,475.00
2022-08-12T08:53:01.006Z,477.00
2022-08-12T08:54:00.927Z,473.00
2022-08-12T08:55:02.119Z,470.00
2022-08-12T08:56:05.088Z,470.00
2022-08-12T08:57:00.895Z,470.00
2022-08-12T08:58:00.941Z,470.00
2022-08-12T08:59:00.854Z,468.00
2022-08-12T09:00:00.984Z,470.00
2022-08-12T09:01:00.854Z,472.00
2022-08-12T09:02:01.080Z,470.00
2022-08-12T09:03:00.803Z,471.00
2022-08-12T09:05:13.408Z,467.00
2022-08-12T09:05:14.398Z,469.00
2022-08-12T09:06:03.171Z,468.00
2022-08-12T09:07:01.136Z,471.00
2022-08-12T09:09:01.809Z,470.00
2022-08-12T09:10:03.961Z,471.00
2022-08-12T09:11:00.887Z,468.00
2022-08-12T09:12:11.967Z,468.00
2022-08-12T09:13:02.103Z,470.00
2022-08-12T09:14:10.601Z,471.00
2022-08-12T09:15:01.657Z,469.00
2022-08-12T09:16:01.650Z,470.00
2022-08-12T09:17:00.818Z,470.00
2022-08-12T09:18:00.628Z,468.00
2022-08-12T09:19:00.659Z,467.00
2022-08-12T09:20:00.579Z,469.00
2022-08-12T09:21:01.946Z,468.00
2022-08-12T09:22:00.565Z,467.00
2022-08-12T09:23:00.636Z,466.00
2022-08-12T09:25:01.512Z,474.00
2022-08-12T09:26:04.058Z,469.00
2022-08-12T09:27:00.489Z,466.00
2022-08-12T09:29:01.624Z,469.00
2022-08-12T09:30:11.380Z,477.00
2022-08-12T09:31:01.607Z,480.00
2022-08-12T09:32:06.379Z,479.00
2022-08-12T09:33:08.626Z,480.00
2022-08-12T09:34:26.692Z,480.00
2022-08-12T09:35:02.570Z,480.00
2022-08-12T09:36:04.291Z,477.00
2022-08-12T09:37:02.405Z,475.00
2022-08-12T09:38:01.163Z,478.00
2022-08-12T09:39:01.243Z,487.00
2022-08-12T09:40:13.713Z,493.00
2022-08-12T09:42:32.852Z,477.00
2022-08-12T09:42:34.255Z,462.00
2022-08-12T09:43:15.326Z,465.00
2022-08-12T09:44:01.633Z,463.00
2022-08-12T09:45:18.253Z,466.00
2022-08-12T09:46:11.851Z,472.00
2022-08-12T09:47:01.242Z,471.00
2022-08-12T09:48:00.431Z,474.00
2022-08-12T09:49:00.191Z,477.00
2022-08-12T09:50:00.254Z,474.00
2022-08-12T09:51:01.730Z,472.00
2022-08-12T09:52:00.154Z,473.00
2022-08-12T09:53:04.088Z,473.00
2022-08-12T09:54:08.834Z,467.00
2022-08-12T09:55:02.651Z,465.00
2022-08-12T09:56:40.989Z,462.00
2022-08-12T09:58:07.705Z,460.00
2022-08-12T09:58:51.179Z,464.00
2022-08-12T09:59:01.993Z,467.00
2022-08-12T10:00:14.911Z,473.00
2022-08-12T10:01:01.130Z,476.00
2022-08-12T10:02:45.302Z,478.00
2022-08-12T10:03:32.188Z,480.00
2022-08-12T10:04:07.847Z,480.00
2022-08-12T10:06:27.678Z,474.00
2022-08-12T10:06:28.023Z,472.00
2022-08-12T10:07:02.323Z,469.00
2022-08-12T10:08:01.365Z,471.00
2022-08-12T10:09:01.798Z,473.00
2022-08-12T10:10:04.350Z,470.00
2022-08-12T10:11:04.072Z,476.00
2022-08-12T10:12:11.572Z,484.00
2022-08-12T10:13:07.134Z,496.00
2022-08-12T10:14:01.615Z,494.00
2022-08-12T10:15:02.373Z,494.00
2022-08-12T10:16:02.145Z,494.00
2022-08-12T10:17:02.357Z,497.00
2022-08-12T10:18:06.787Z,495.00
2022-08-12T10:19:00.993Z,491.00
2022-08-12T10:20:01.387Z,473.00
2022-08-12T10:20:59.806Z,469.00
2022-08-12T10:21:59.864Z,470.00
2022-08-12T10:22:59.749Z,464.00
2022-08-12T10:23:59.777Z,463.00
2022-08-12T10:24:59.727Z,469.00
2022-08-12T10:26:35.282Z,475.00
2022-08-12T10:27:00.778Z,478.00
2022-08-12T10:28:03.365Z,477.00
2022-08-12T10:29:02.726Z,477.00
2022-08-12T10:30:40.711Z,474.00
2022-08-12T10:31:01.686Z,482.00
2022-08-12T10:32:20.492Z,484.00
2022-08-12T10:33:02.578Z,482.00
2022-08-12T10:34:06.522Z,480.00
2022-08-12T10:35:00.590Z,481.00
2022-08-12T10:35:59.670Z,476.00
2022-08-12T10:37:10.451Z,467.00
2022-08-12T10:38:36.386Z,460.00
2022-08-12T10:39:00.602Z,460.00
2022-08-12T10:40:05.643Z,460.00
2022-08-12T10:41:00.554Z,467.00
2022-08-12T10:42:00.197Z,475.00
2022-08-12T10:43:00.461Z,477.00
2022-08-12T10:43:59.598Z,475.00
2022-08-12T10:44:59.483Z,473.00
2022-08-12T10:45:59.542Z,478.00
2022-08-12T10:46:59.459Z,481.00
2022-08-12T10:48:07.790Z,478.00
2022-08-12T10:49:06.480Z,475.00
2022-08-12T10:50:28.118Z,476.00
2022-08-12T10:51:03.459Z,474.00
2022-08-12T10:52:32.423Z,473.00
2022-08-12T10:53:00.392Z,474.00
2022-08-12T10:54:00.854Z,481.00
2022-08-12T10:54:59.351Z,482.00
2022-08-12T10:55:59.401Z,492.00
2022-08-12T10:56:59.312Z,478.00
2022-08-12T10:58:15.796Z,476.00
2022-08-12T10:59:00.315Z,481.00
2022-08-12T11:00:30.983Z,486.00
2022-08-12T11:01:50.143Z,484.00
2022-08-12T11:04:19.068Z,460.00
2022-08-12T11:04:23.174Z,477.00
2022-08-12T11:04:31.477Z,467.00
2022-08-12T11:05:47.225Z,457.00
2022-08-12T11:07:05.823Z,466.00
2022-08-12T11:07:06.997Z,460.00
2022-08-12T11:08:37.115Z,470.00
2022-08-12T11:09:00.378Z,493.00
2022-08-12T11:10:01.429Z,496.00
2022-08-12T11:10:59.214Z,499.00
2022-08-12T11:12:35.874Z,502.00
2022-08-12T11:13:00.773Z,496.00
2022-08-12T11:14:00.013Z,495.00
2022-08-12T11:14:59.193Z,492.00
2022-08-12T11:16:19.335Z,487.00
2022-08-12T11:17:34.495Z,485.00
2022-08-12T11:18:03.104Z,485.00
2022-08-12T11:18:59.036Z,484.00
2022-08-12T11:19:59.006Z,477.00
2022-08-12T11:20:59.086Z,476.00
2022-08-12T11:22:01.280Z,468.00
2022-08-12T11:22:59.481Z,465.00
2022-08-12T11:23:58.998Z,468.00
2022-08-12T11:24:59.057Z,478.00
2022-08-12T11:26:04.974Z,480.00
2022-08-12T11:26:59.926Z,482.00
2022-08-12T11:27:59.078Z,480.00
2022-08-12T11:29:05.723Z,471.00
2022-08-12T11:30:01.889Z,472.00
2022-08-12T11:31:00.939Z,482.00
2022-08-12T11:31:58.878Z,492.00
2022-08-12T11:32:58.876Z,496.00
2022-08-12T11:34:05.475Z,496.00
2022-08-12T11:34:59.810Z,499.00
2022-08-12T11:35:59.821Z,504.00
2022-08-12T11:37:00.342Z,503.00
2022-08-12T11:37:59.587Z,506.00
2022-08-12T11:38:58.792Z,506.00
2022-08-12T11:39:59.719Z,504.00
2022-08-12T11:40:59.671Z,502.00
2022-08-12T11:41:58.700Z,497.00
2022-08-12T11:43:21.819Z,468.00
2022-08-12T11:43:59.208Z,464.00
2022-08-12T11:44:58.721Z,461.00
2022-08-12T11:45:58.633Z,465.00
2022-08-12T11:47:19.673Z,473.00
2022-08-12T11:47:58.616Z,492.00
2022-08-12T11:48:58.787Z,501.00
2022-08-12T11:49:58.631Z,494.00
2022-08-12T11:50:58.659Z,493.00
2022-08-12T11:51:58.603Z,492.00
2022-08-12T11:52:59.804Z,493.00
2022-08-12T11:54:01.183Z,494.00
2022-08-12T11:54:58.577Z,487.00
2022-08-12T11:55:58.547Z,493.00
2022-08-12T11:57:00.239Z,497.00
2022-08-12T11:58:33.794Z,502.00
2022-08-12T12:02:05.236Z,509.00
2022-08-12T12:02:59.445Z,512.00
2022-08-12T12:03:58.535Z,516.00
2022-08-12T12:04:58.373Z,517.00
2022-08-12T12:06:19.443Z,497.00
2022-08-12T12:07:07.535Z,513.00
2022-08-12T12:08:37.219Z,515.00
2022-08-12T12:09:00.614Z,519.00
2022-08-12T12:09:58.336Z,519.00
2022-08-12T12:10:59.331Z,500.00
2022-08-12T12:11:58.301Z,520.00
2022-08-12T12:12:58.409Z,520.00
2022-08-12T12:14:06.893Z,522.00
2022-08-12T12:15:03.139Z,519.00
2022-08-12T12:16:00.217Z,519.00
2022-08-12T12:16:58.331Z,521.00
2022-08-12T12:17:58.235Z,520.00
2022-08-12T12:18:58.244Z,485.00
2022-08-12T12:19:58.224Z,469.00
2022-08-12T12:20:58.331Z,469.00
2022-08-12T12:21:58.175Z,473.00
2022-08-12T12:22:58.277Z,499.00
2022-08-12T12:24:00.825Z,466.00
2022-08-12T12:24:58.203Z,464.00
2022-08-12T12:26:06.686Z,460.00
2022-08-12T12:27:00.238Z,460.00
2022-08-12T12:28:05.609Z,488.00
2022-08-12T12:28:59.088Z,475.00
2022-08-12T12:30:19.804Z,475.00
2022-08-12T12:30:59.059Z,479.00
2022-08-12T12:32:10.282Z,483.00
2022-08-12T12:32:59.121Z,480.00
2022-08-12T12:33:58.939Z,485.00
2022-08-12T12:36:05.591Z,518.00
2022-08-12T12:36:18.299Z,532.00
2022-08-12T12:37:00.956Z,533.00
2022-08-12T12:38:03.591Z,533.00